sensor_id;sensor_type;location;lat;lon;timestamp;pressure;altitude;pressure_sealevel;temperature;humidity
72086;BME280;64750;52.134;5.424;2023-03-25T00:02:05;100260.31;;;10.05;72.66
72086;BME280;64750;52.134;5.424;2023-03-25T00:04:31;100265.69;;;10.03;72.74
72086;BME280;64750;52.134;5.424;2023-03-25T00:07:00;100276.28;;;10.01;72.83
72086;BME280;64750;52.134;5.424;2023-03-25T00:09:28;100268.41;;;10.01;72.73
72086;BME280;64750;52.134;5.424;2023-03-25T00:11:54;100260.44;;;10.03;72.74
72086;BME280;64750;52.134;5.424;2023-03-25T00:14:21;100274.72;;;9.99;72.81
72086;BME280;64750;52.134;5.424;2023-03-25T00:16:47;100274.72;;;9.99;72.73
72086;BME280;64750;52.134;5.424;2023-03-25T00:19:19;100270.50;;;9.96;72.85
72086;BME280;64750;52.134;5.424;2023-03-25T00:21:47;100275.94;;;9.93;73.06
72086;BME280;64750;52.134;5.424;2023-03-25T00:24:16;100273.25;;;9.95;73.00
72086;BME280;64750;52.134;5.424;2023-03-25T00:26:44;100261.06;;;9.94;73.36
72086;BME280;64750;52.134;5.424;2023-03-25T00:29:12;100276.81;;;9.94;73.60
72086;BME280;64750;52.134;5.424;2023-03-25T00:31:39;100270.81;;;9.92;72.90
72086;BME280;64750;52.134;5.424;2023-03-25T00:34:06;100271.75;;;9.91;73.41
72086;BME280;64750;52.134;5.424;2023-03-25T00:36:34;100267.53;;;9.88;73.55
72086;BME280;64750;52.134;5.424;2023-03-25T00:39:04;100267.53;;;9.88;73.40
72086;BME280;64750;52.134;5.424;2023-03-25T00:41:30;100284.97;;;9.89;73.51
72086;BME280;64750;52.134;5.424;2023-03-25T00:43:59;100265.88;;;9.87;73.29
72086;BME280;64750;52.134;5.424;2023-03-25T00:46:29;100269.22;;;9.89;73.52
72086;BME280;64750;52.134;5.424;2023-03-25T00:48:56;100273.66;;;9.89;73.55
72086;BME280;64750;52.134;5.424;2023-03-25T00:51:24;100265.03;;;9.87;73.67
72086;BME280;64750;52.134;5.424;2023-03-25T00:53:53;100265.13;;;9.85;73.46
72086;BME280;64750;52.134;5.424;2023-03-25T00:56:20;100276.56;;;9.84;73.36
72086;BME280;64750;52.134;5.424;2023-03-25T00:58:47;100264.19;;;9.86;73.42
72086;BME280;64750;52.134;5.424;2023-03-25T01:01:15;100278.25;;;9.85;73.42
72086;BME280;64750;52.134;5.424;2023-03-25T01:03:43;100269.56;;;9.84;73.42
72086;BME280;64750;52.134;5.424;2023-03-25T01:06:11;100272.06;;;9.86;73.22
72086;BME280;64750;52.134;5.424;2023-03-25T01:08:39;100272.19;;;9.84;73.11
72086;BME280;64750;52.134;5.424;2023-03-25T01:11:16;100274.03;;;9.82;73.14
72086;BME280;64750;52.134;5.424;2023-03-25T01:13:43;100272.34;;;9.81;73.02
72086;BME280;64750;52.134;5.424;2023-03-25T01:16:09;100279.50;;;9.79;72.90
72086;BME280;64750;52.134;5.424;2023-03-25T01:18:36;100274.16;;;9.81;72.72
72086;BME280;64750;52.134;5.424;2023-03-25T01:21:04;100275.75;;;9.83;72.92
72086;BME280;64750;52.134;5.424;2023-03-25T01:23:31;100265.41;;;9.80;72.71
72086;BME280;64750;52.134;5.424;2023-03-25T01:25:58;100272.34;;;9.81;72.64
72086;BME280;64750;52.134;5.424;2023-03-25T01:28:25;100258.53;;;9.79;72.43
72086;BME280;64750;52.134;5.424;2023-03-25T01:31:07;100261.22;;;9.78;72.85
72086;BME280;64750;52.134;5.424;2023-03-25T01:33:34;100262.78;;;9.80;73.12
72086;BME280;64750;52.134;5.424;2023-03-25T01:36:01;100256.94;;;9.77;73.81
72086;BME280;64750;52.134;5.424;2023-03-25T01:38:28;100263.13;;;9.76;74.35
72086;BME280;64750;52.134;5.424;2023-03-25T01:40:56;100259.75;;;9.74;74.59
72086;BME280;64750;52.134;5.424;2023-03-25T01:43:22;100273.19;;;9.69;74.66
72086;BME280;64750;52.134;5.424;2023-03-25T01:45:49;100255.75;;;9.68;74.96
72086;BME280;64750;52.134;5.424;2023-03-25T01:48:28;100255.75;;;9.68;74.97
72086;BME280;64750;52.134;5.424;2023-03-25T01:51:13;100255.94;;;9.65;75.28
72086;BME280;64750;52.134;5.424;2023-03-25T01:53:43;100254.25;;;9.64;75.27
72086;BME280;64750;52.134;5.424;2023-03-25T01:56:12;100252.59;;;9.63;75.33
72086;BME280;64750;52.134;5.424;2023-03-25T01:58:42;100248.28;;;9.62;75.39
72086;BME280;64750;52.134;5.424;2023-03-25T02:01:11;100260.53;;;9.61;75.92
72086;BME280;64750;52.134;5.424;2023-03-25T02:03:40;100258.13;;;9.58;76.44
72086;BME280;64750;52.134;5.424;2023-03-25T02:06:17;100259.38;;;9.52;76.83
72086;BME280;64750;52.134;5.424;2023-03-25T02:08:45;100255.06;;;9.51;77.11
72086;BME280;64750;52.134;5.424;2023-03-25T02:11:12;100261.34;;;9.49;77.20
72086;BME280;64750;52.134;5.424;2023-03-25T02:13:41;100260.72;;;9.45;77.11
72086;BME280;64750;52.134;5.424;2023-03-25T02:16:33;100253.78;;;9.44;77.13
72086;BME280;64750;52.134;5.424;2023-03-25T02:25:10;100254.94;;;9.40;77.35
72086;BME280;64750;52.134;5.424;2023-03-25T02:38:44;100253.19;;;9.26;79.55
72086;BME280;64750;52.134;5.424;2023-03-25T02:43:57;100249.91;;;9.23;79.79
72086;BME280;64750;52.134;5.424;2023-03-25T02:46:28;100250.84;;;9.22;80.15
72086;BME280;64750;52.134;5.424;2023-03-25T02:49:04;100244.50;;;9.26;80.28
72086;BME280;64750;52.134;5.424;2023-03-25T02:51:41;100253.47;;;9.22;80.15
72086;BME280;64750;52.134;5.424;2023-03-25T02:54:11;100244.78;;;9.21;79.85
72086;BME280;64750;52.134;5.424;2023-03-25T02:56:40;100251.72;;;9.22;80.07
72086;BME280;64750;52.134;5.424;2023-03-25T02:59:10;100253.47;;;9.22;80.03
72086;BME280;64750;52.134;5.424;2023-03-25T03:01:42;100248.97;;;9.24;79.78
72086;BME280;64750;52.134;5.424;2023-03-25T03:04:09;100245.53;;;9.23;80.06
72086;BME280;64750;52.134;5.424;2023-03-25T03:06:39;100233.25;;;9.24;79.83
72086;BME280;64750;52.134;5.424;2023-03-25T03:12:14;100227.81;;;9.27;80.10
72086;BME280;64750;52.134;5.424;2023-03-25T03:14:53;100228.53;;;9.29;79.86
72086;BME280;64750;52.134;5.424;2023-03-25T03:17:27;100221.63;;;9.28;80.25
72086;BME280;64750;52.134;5.424;2023-03-25T03:20:07;100227.25;;;9.22;80.55
72086;BME280;64750;52.134;5.424;2023-03-25T03:28:01;100219.19;;;9.25;81.21
72086;BME280;64750;52.134;5.424;2023-03-25T03:30:52;100229.88;;;9.22;81.35
72086;BME280;64750;52.134;5.424;2023-03-25T03:33:52;100220.25;;;9.22;81.14
72086;BME280;64750;52.134;5.424;2023-03-25T03:36:24;100224.44;;;9.25;81.44
72086;BME280;64750;52.134;5.424;2023-03-25T03:38:58;100225.38;;;9.24;81.51
72086;BME280;64750;52.134;5.424;2023-03-25T03:41:27;100227.47;;;9.18;81.45
72086;BME280;64750;52.134;5.424;2023-03-25T03:44:12;100221.28;;;9.19;81.30
72086;BME280;64750;52.134;5.424;2023-03-25T03:46:48;100223.69;;;9.23;81.17
72086;BME280;64750;52.134;5.424;2023-03-25T03:49:27;100224.56;;;9.23;81.16
72086;BME280;64750;52.134;5.424;2023-03-25T03:52:02;100219.38;;;9.22;81.25
72086;BME280;64750;52.134;5.424;2023-03-25T03:54:40;100215.28;;;9.17;81.07
72086;BME280;64750;52.134;5.424;2023-03-25T03:57:18;100210.91;;;9.18;81.56
72086;BME280;64750;52.134;5.424;2023-03-25T04:00:15;100211.63;;;9.20;81.45
72086;BME280;64750;52.134;5.424;2023-03-25T04:02:56;100211.63;;;9.20;81.57
72086;BME280;64750;52.134;5.424;2023-03-25T04:05:25;100202.28;;;9.16;81.78
72086;BME280;64750;52.134;5.424;2023-03-25T04:08:33;100208.56;;;9.13;82.05
72086;BME280;64750;52.134;5.424;2023-03-25T04:11:09;100210.34;;;9.13;81.99
72086;BME280;64750;52.134;5.424;2023-03-25T04:13:41;100207.72;;;9.13;82.37
72086;BME280;64750;52.134;5.424;2023-03-25T04:16:09;100199.75;;;9.14;82.10
72086;BME280;64750;52.134;5.424;2023-03-25T04:18:36;100202.38;;;9.14;82.62
72086;BME280;64750;52.134;5.424;2023-03-25T04:21:02;100202.78;;;9.08;82.37
72086;BME280;64750;52.134;5.424;2023-03-25T04:23:29;100192.50;;;9.05;82.83
72086;BME280;64750;52.134;5.424;2023-03-25T04:25:56;100195.13;;;9.05;83.34
72086;BME280;64750;52.134;5.424;2023-03-25T04:28:22;100208.94;;;9.07;83.24
72086;BME280;64750;52.134;5.424;2023-03-25T04:30:51;100207.25;;;9.06;83.15
72086;BME280;64750;52.134;5.424;2023-03-25T04:33:21;100199.81;;;9.00;83.25
72086;BME280;64750;52.134;5.424;2023-03-25T04:35:48;100212.06;;;8.99;83.42
72086;BME280;64750;52.134;5.424;2023-03-25T04:38:17;100200.94;;;8.96;83.64
72086;BME280;64750;52.134;5.424;2023-03-25T04:40:45;100202.94;;;8.92;83.90
72086;BME280;64750;52.134;5.424;2023-03-25T04:43:13;100197.75;;;8.91;84.49
72086;BME280;64750;52.134;5.424;2023-03-25T04:45:40;100220.91;;;8.84;84.48
72086;BME280;64750;52.134;5.424;2023-03-25T04:48:27;100219.31;;;8.81;85.19
72086;BME280;64750;52.134;5.424;2023-03-25T04:50:57;100216.97;;;8.77;85.26
72086;BME280;64750;52.134;5.424;2023-03-25T04:53:27;100234.19;;;8.81;85.53
72086;BME280;64750;52.134;5.424;2023-03-25T04:55:54;100245.72;;;8.78;85.54
72086;BME280;64750;52.134;5.424;2023-03-25T04:58:21;100235.41;;;8.75;85.46
72086;BME280;64750;52.134;5.424;2023-03-25T05:00:50;100239.63;;;8.78;85.79
72086;BME280;64750;52.134;5.424;2023-03-25T05:03:17;100235.31;;;8.77;85.78
72086;BME280;64750;52.134;5.424;2023-03-25T05:05:50;100229.78;;;8.81;85.98
72086;BME280;64750;52.134;5.424;2023-03-25T05:08:17;100240.47;;;8.78;85.64
72086;BME280;64750;52.134;5.424;2023-03-25T05:10:43;100235.25;;;8.78;85.31
72086;BME280;64750;52.134;5.424;2023-03-25T05:13:10;100232.50;;;8.80;85.29
72086;BME280;64750;52.134;5.424;2023-03-25T05:15:36;100240.47;;;8.78;85.07
72086;BME280;64750;52.134;5.424;2023-03-25T05:18:07;100231.84;;;8.76;85.13
72086;BME280;64750;52.134;5.424;2023-03-25T05:20:40;100229.03;;;8.79;85.23
72086;BME280;64750;52.134;5.424;2023-03-25T05:23:08;100232.69;;;8.77;85.03
72086;BME280;64750;52.134;5.424;2023-03-25T05:25:44;100228.41;;;8.76;85.28
72086;BME280;64750;52.134;5.424;2023-03-25T05:28:13;100236.53;;;8.71;85.12
72086;BME280;64750;52.134;5.424;2023-03-25T05:30:42;100245.22;;;8.72;84.71
72086;BME280;64750;52.134;5.424;2023-03-25T05:33:13;100243.38;;;8.74;84.96
72086;BME280;64750;52.134;5.424;2023-03-25T05:35:43;100240.00;;;8.72;84.87
72086;BME280;64750;52.134;5.424;2023-03-25T05:38:10;100233.28;;;8.67;84.82
72086;BME280;64750;52.134;5.424;2023-03-25T05:40:45;100241.22;;;8.66;84.48
72086;BME280;64750;52.134;5.424;2023-03-25T05:43:13;100232.59;;;8.64;84.47
72086;BME280;64750;52.134;5.424;2023-03-25T05:45:40;100236.91;;;8.65;83.97
72086;BME280;64750;52.134;5.424;2023-03-25T05:48:07;100250.78;;;8.67;84.37
72086;BME280;64750;52.134;5.424;2023-03-25T05:50:36;100242.16;;;8.65;83.98
72086;BME280;64750;52.134;5.424;2023-03-25T05:53:03;100247.22;;;8.68;83.90
72086;BME280;64750;52.134;5.424;2023-03-25T05:55:29;100238.50;;;8.67;83.76
72086;BME280;64750;52.134;5.424;2023-03-25T05:57:56;100241.03;;;8.69;83.91
72086;BME280;64750;52.134;5.424;2023-03-25T06:00:24;100251.50;;;8.69;84.03
72086;BME280;64750;52.134;5.424;2023-03-25T06:02:50;100249.09;;;8.66;83.40
72086;BME280;64750;52.134;5.424;2023-03-25T06:05:17;100248.06;;;8.68;83.15
72086;BME280;64750;52.134;5.424;2023-03-25T06:07:48;100261.25;;;8.67;83.10
72086;BME280;64750;52.134;5.424;2023-03-25T06:10:16;100258.72;;;8.65;83.03
72086;BME280;64750;52.134;5.424;2023-03-25T06:12:46;100266.50;;;8.67;82.54
72086;BME280;64750;52.134;5.424;2023-03-25T06:15:15;100261.16;;;8.68;82.97
72086;BME280;64750;52.134;5.424;2023-03-25T06:17:46;100256.00;;;8.67;82.72
72086;BME280;64750;52.134;5.424;2023-03-25T06:20:13;100263.56;;;8.72;82.64
72086;BME280;64750;52.134;5.424;2023-03-25T06:22:44;100255.66;;;8.73;82.64
72086;BME280;64750;52.134;5.424;2023-03-25T06:25:15;100258.34;;;8.72;82.51
72086;BME280;64750;52.134;5.424;2023-03-25T06:27:47;100250.47;;;8.72;83.02
72086;BME280;64750;52.134;5.424;2023-03-25T06:30:17;100253.94;;;8.72;82.96
72086;BME280;64750;52.134;5.424;2023-03-25T06:32:44;100257.50;;;8.71;82.31
72086;BME280;64750;52.134;5.424;2023-03-25T06:35:17;100258.81;;;8.78;82.95
72086;BME280;64750;52.134;5.424;2023-03-25T06:37:46;100256.84;;;8.82;82.39
72086;BME280;64750;52.134;5.424;2023-03-25T06:40:14;100258.34;;;8.86;83.04
72086;BME280;64750;52.134;5.424;2023-03-25T06:42:40;100262.94;;;8.82;82.96
72086;BME280;64750;52.134;5.424;2023-03-25T06:45:07;100269.19;;;8.80;83.41
72086;BME280;64750;52.134;5.424;2023-03-25T06:47:34;100264.44;;;8.72;83.79
72086;BME280;64750;52.134;5.424;2023-03-25T06:50:01;100276.88;;;8.68;84.43
72086;BME280;64750;52.134;5.424;2023-03-25T06:52:27;100277.16;;;8.64;84.78
72086;BME280;64750;52.134;5.424;2023-03-25T06:54:53;100285.19;;;8.61;85.21
72086;BME280;64750;52.134;5.424;2023-03-25T06:57:20;100285.19;;;8.61;85.32
72086;BME280;64750;52.134;5.424;2023-03-25T06:59:46;100280.16;;;8.58;85.35
72086;BME280;64750;52.134;5.424;2023-03-25T07:02:14;100287.47;;;8.52;84.94
72086;BME280;64750;52.134;5.424;2023-03-25T07:04:41;100288.56;;;8.48;85.50
72086;BME280;64750;52.134;5.424;2023-03-25T07:07:08;100273.81;;;8.47;85.83
72086;BME280;64750;52.134;5.424;2023-03-25T07:09:35;100288.50;;;8.50;85.92
72086;BME280;64750;52.134;5.424;2023-03-25T07:12:01;100281.72;;;8.46;85.62
72086;BME280;64750;52.134;5.424;2023-03-25T07:14:28;100275.63;;;8.45;85.77
72086;BME280;64750;52.134;5.424;2023-03-25T07:16:55;100290.50;;;8.45;85.83
72086;BME280;64750;52.134;5.424;2023-03-25T07:19:22;100291.44;;;8.44;86.39
72086;BME280;64750;52.134;5.424;2023-03-25T07:21:48;100283.59;;;8.44;86.19
72086;BME280;64750;52.134;5.424;2023-03-25T07:24:15;100287.13;;;8.43;86.12
72086;BME280;64750;52.134;5.424;2023-03-25T07:26:41;100294.88;;;8.44;86.52
72086;BME280;64750;52.134;5.424;2023-03-25T07:29:07;100302.84;;;8.43;86.57
72086;BME280;64750;52.134;5.424;2023-03-25T07:31:34;100302.94;;;8.41;86.45
72086;BME280;64750;52.134;5.424;2023-03-25T07:34:01;100303.78;;;8.42;86.59
72086;BME280;64750;52.134;5.424;2023-03-25T07:36:28;100307.16;;;8.44;86.77
72086;BME280;64750;52.134;5.424;2023-03-25T07:38:54;100306.16;;;8.46;86.59
72086;BME280;64750;52.134;5.424;2023-03-25T07:41:22;100305.03;;;8.50;87.00
72086;BME280;64750;52.134;5.424;2023-03-25T07:43:49;100297.44;;;8.46;86.76
72086;BME280;64750;52.134;5.424;2023-03-25T07:46:15;100300.91;;;8.46;86.48
72086;BME280;64750;52.134;5.424;2023-03-25T07:48:42;100299.78;;;8.50;86.24
72086;BME280;64750;52.134;5.424;2023-03-25T07:51:08;100302.97;;;8.56;86.74
72086;BME280;64750;52.134;5.424;2023-03-25T07:53:35;100307.19;;;8.58;87.05
72086;BME280;64750;52.134;5.424;2023-03-25T07:56:05;100300.25;;;8.57;86.64
72086;BME280;64750;52.134;5.424;2023-03-25T07:58:32;100306.34;;;8.58;86.66
72086;BME280;64750;52.134;5.424;2023-03-25T08:00:58;100308.22;;;8.56;86.52
72086;BME280;64750;52.134;5.424;2023-03-25T08:03:25;100301.28;;;8.54;86.43
72086;BME280;64750;52.134;5.424;2023-03-25T08:05:53;100307.28;;;8.57;86.34
72086;BME280;64750;52.134;5.424;2023-03-25T08:08:19;100301.84;;;8.60;86.58
72086;BME280;64750;52.134;5.424;2023-03-25T08:10:46;100304.31;;;8.63;86.65
72086;BME280;64750;52.134;5.424;2023-03-25T08:13:13;100314.78;;;8.63;86.35
72086;BME280;64750;52.134;5.424;2023-03-25T08:15:40;100317.19;;;8.66;86.24
72086;BME280;64750;52.134;5.424;2023-03-25T08:18:06;100319.63;;;8.69;86.15
72086;BME280;64750;52.134;5.424;2023-03-25T08:20:33;100307.28;;;8.71;85.69
72086;BME280;64750;52.134;5.424;2023-03-25T08:23:00;100319.47;;;8.72;85.85
72086;BME280;64750;52.134;5.424;2023-03-25T08:25:29;100322.81;;;8.74;85.72
72086;BME280;64750;52.134;5.424;2023-03-25T08:27:55;100328.91;;;8.75;85.65
72086;BME280;64750;52.134;5.424;2023-03-25T08:30:22;100323.56;;;8.76;85.99
72086;BME280;64750;52.134;5.424;2023-03-25T08:32:48;100323.66;;;8.75;85.88
72086;BME280;64750;52.134;5.424;2023-03-25T08:35:20;100328.16;;;8.73;86.04
72086;BME280;64750;52.134;5.424;2023-03-25T08:37:47;100331.63;;;8.73;86.33
72086;BME280;64750;52.134;5.424;2023-03-25T08:40:14;100341.16;;;8.74;86.55
72086;BME280;64750;52.134;5.424;2023-03-25T08:42:44;100332.34;;;8.75;86.56
72086;BME280;64750;52.134;5.424;2023-03-25T08:45:12;100333.94;;;8.78;87.07
72086;BME280;64750;52.134;5.424;2023-03-25T08:47:40;100331.44;;;8.76;86.72
72086;BME280;64750;52.134;5.424;2023-03-25T08:50:08;100327.88;;;8.77;86.83
72086;BME280;64750;52.134;5.424;2023-03-25T08:52:34;100319.75;;;8.82;86.59
72086;BME280;64750;52.134;5.424;2023-03-25T08:55:01;100329.94;;;8.86;86.48
72086;BME280;64750;52.134;5.424;2023-03-25T08:57:28;100329.66;;;8.91;86.80
72086;BME280;64750;52.134;5.424;2023-03-25T08:59:55;100341.53;;;8.97;86.86
72086;BME280;64750;52.134;5.424;2023-03-25T09:02:21;100324.66;;;9.01;86.84
72086;BME280;64750;52.134;5.424;2023-03-25T09:04:48;100334.41;;;9.13;86.38
72086;BME280;64750;52.134;5.424;2023-03-25T09:07:14;100340.19;;;9.18;86.00
72086;BME280;64750;52.134;5.424;2023-03-25T09:09:41;100331.31;;;9.21;86.08
72086;BME280;64750;52.134;5.424;2023-03-25T09:12:08;100324.84;;;9.27;85.57
72086;BME280;64750;52.134;5.424;2023-03-25T09:14:35;100337.00;;;9.28;85.10
72086;BME280;64750;52.134;5.424;2023-03-25T09:17:02;100331.75;;;9.28;85.20
72086;BME280;64750;52.134;5.424;2023-03-25T09:19:29;100330.66;;;9.32;85.42
72086;BME280;64750;52.134;5.424;2023-03-25T09:21:56;100328.75;;;9.34;84.93
72086;BME280;64750;52.134;5.424;2023-03-25T09:24:22;100329.31;;;9.39;85.23
72086;BME280;64750;52.134;5.424;2023-03-25T09:26:50;100350.09;;;9.42;84.75
72086;BME280;64750;52.134;5.424;2023-03-25T09:29:16;100353.75;;;9.40;83.89
72086;BME280;64750;52.134;5.424;2023-03-25T09:31:43;100349.72;;;9.34;83.87
72086;BME280;64750;52.134;5.424;2023-03-25T09:34:09;100345.34;;;9.34;84.55
72086;BME280;64750;52.134;5.424;2023-03-25T09:36:37;100351.75;;;9.43;85.08
72086;BME280;64750;52.134;5.424;2023-03-25T09:39:03;100341.94;;;9.47;84.70
72086;BME280;64750;52.134;5.424;2023-03-25T09:44:31;100335.97;;;9.72;83.77
72086;BME280;64750;52.134;5.424;2023-03-25T09:47:01;100339.50;;;9.71;83.90
72086;BME280;64750;52.134;5.424;2023-03-25T09:49:38;100343.28;;;9.67;83.71
72086;BME280;64750;52.134;5.424;2023-03-25T09:52:14;100342.53;;;9.65;84.19
72086;BME280;64750;52.134;5.424;2023-03-25T09:54:47;100350.50;;;9.63;83.57
72086;BME280;64750;52.134;5.424;2023-03-25T09:57:24;100342.84;;;9.60;82.73
72086;BME280;64750;52.134;5.424;2023-03-25T09:59:53;100341.03;;;9.61;82.63
72086;BME280;64750;52.134;5.424;2023-03-25T10:02:35;100343.66;;;9.61;82.73
72086;BME280;64750;52.134;5.424;2023-03-25T10:08:08;100348.91;;;9.61;82.36
72086;BME280;64750;52.134;5.424;2023-03-25T10:19:41;100361.81;;;9.78;81.88
72086;BME280;64750;52.134;5.424;2023-03-25T10:22:20;100369.88;;;9.75;82.06
72086;BME280;64750;52.134;5.424;2023-03-25T10:24:56;100365.56;;;9.74;81.60
72086;BME280;64750;52.134;5.424;2023-03-25T10:30:09;100367.06;;;9.78;81.44
72086;BME280;64750;52.134;5.424;2023-03-25T10:32:40;100373.13;;;9.79;79.89
72086;BME280;64750;52.134;5.424;2023-03-25T10:35:21;100368.53;;;9.82;79.93
72086;BME280;64750;52.134;5.424;2023-03-25T10:37:52;100357.81;;;9.85;79.47
72086;BME280;64750;52.134;5.424;2023-03-25T10:40:22;100362.91;;;9.89;78.67
72086;BME280;64750;52.134;5.424;2023-03-25T10:43:11;100361.84;;;9.91;78.28
72086;BME280;64750;52.134;5.424;2023-03-25T10:45:42;100371.97;;;9.97;78.39
72086;BME280;64750;52.134;5.424;2023-03-25T10:48:15;100362.72;;;10.05;77.75
72086;BME280;64750;52.134;5.424;2023-03-25T10:50:44;100367.88;;;10.06;78.02
72086;BME280;64750;52.134;5.424;2023-03-25T10:53:18;100362.72;;;10.05;77.09
72086;BME280;64750;52.134;5.424;2023-03-25T10:55:48;100387.09;;;10.07;77.30
72086;BME280;64750;52.134;5.424;2023-03-25T10:58:18;100369.44;;;10.09;77.41
72086;BME280;64750;52.134;5.424;2023-03-25T11:00:46;100373.03;;;10.08;76.95
72086;BME280;64750;52.134;5.424;2023-03-25T11:03:33;100379.22;;;10.07;76.88
72086;BME280;64750;52.134;5.424;2023-03-25T11:06:00;100393.19;;;10.07;77.03
72086;BME280;64750;52.134;5.424;2023-03-25T11:08:27;100391.31;;;10.09;76.10
72086;BME280;64750;52.134;5.424;2023-03-25T11:10:54;100394.59;;;10.13;76.71
72086;BME280;64750;52.134;5.424;2023-03-25T11:13:27;100399.84;;;10.13;77.13
72086;BME280;64750;52.134;5.424;2023-03-25T11:15:57;100383.16;;;10.14;76.22
72086;BME280;64750;52.134;5.424;2023-03-25T11:18:34;100408.38;;;10.16;77.20
72086;BME280;64750;52.134;5.424;2023-03-25T11:21:08;100386.88;;;10.10;78.16
72086;BME280;64750;52.134;5.424;2023-03-25T11:23:42;100405.13;;;9.98;79.13
72086;BME280;64750;52.134;5.424;2023-03-25T11:26:20;100393.16;;;9.94;78.74
72086;BME280;64750;52.134;5.424;2023-03-25T11:28:55;100417.63;;;9.95;79.05
72086;BME280;64750;52.134;5.424;2023-03-25T11:31:27;100400.09;;;9.95;78.00
72086;BME280;64750;52.134;5.424;2023-03-25T11:34:19;100398.22;;;9.97;78.85
72086;BME280;64750;52.134;5.424;2023-03-25T11:37:13;100400.72;;;9.99;78.53
72086;BME280;64750;52.134;5.424;2023-03-25T11:39:40;100405.06;;;10.00;78.19
72086;BME280;64750;52.134;5.424;2023-03-25T11:44:50;100405.78;;;10.02;77.87
72086;BME280;64750;52.134;5.424;2023-03-25T11:47:24;100397.72;;;10.05;76.58
72086;BME280;64750;52.134;5.424;2023-03-25T11:49:52;100399.72;;;10.14;76.15
72086;BME280;64750;52.134;5.424;2023-03-25T11:52:23;100399.88;;;10.26;76.66
72086;BME280;64750;52.134;5.424;2023-03-25T11:54:54;100391.59;;;10.32;76.91
72086;BME280;64750;52.134;5.424;2023-03-25T11:57:25;100401.28;;;10.44;76.82
72086;BME280;64750;52.134;5.424;2023-03-25T12:00:16;100421.38;;;10.45;76.17
72086;BME280;64750;52.134;5.424;2023-03-25T12:02:45;100400.75;;;10.39;75.06
72086;BME280;64750;52.134;5.424;2023-03-25T12:05:14;100404.13;;;10.41;75.50
72086;BME280;64750;52.134;5.424;2023-03-25T12:07:46;100401.41;;;10.43;76.11
72086;BME280;64750;52.134;5.424;2023-03-25T12:19:10;100387.97;;;10.47;74.54
72086;BME280;64750;52.134;5.424;2023-03-25T12:22:01;100392.25;;;10.48;73.60
72086;BME280;64750;52.134;5.424;2023-03-25T12:36:05;100375.38;;;10.78;72.38
72086;BME280;64750;52.134;5.424;2023-03-25T12:38:47;100372.34;;;10.85;71.81
72086;BME280;64750;52.134;5.424;2023-03-25T12:41:38;100386.19;;;10.87;71.67
72086;BME280;64750;52.134;5.424;2023-03-25T12:44:42;100382.09;;;10.82;72.18
72086;BME280;64750;52.134;5.424;2023-03-25T13:01:14;100382.78;;;11.36;70.27
72086;BME280;64750;52.134;5.424;2023-03-25T13:04:08;100377.41;;;11.38;69.92
72086;BME280;64750;52.134;5.424;2023-03-25T13:07:00;100387.09;;;11.37;69.33
72086;BME280;64750;52.134;5.424;2023-03-25T13:09:33;100383.84;;;11.33;68.69
72086;BME280;64750;52.134;5.424;2023-03-25T13:12:08;100391.19;;;11.41;69.82
72086;BME280;64750;52.134;5.424;2023-03-25T13:14:44;100378.44;;;11.48;69.82
72086;BME280;64750;52.134;5.424;2023-03-25T13:17:24;100381.13;;;11.59;68.93
72086;BME280;64750;52.134;5.424;2023-03-25T13:19:55;100391.97;;;11.55;67.66
72086;BME280;64750;52.134;5.424;2023-03-25T13:22:28;100383.56;;;11.49;68.61
72086;BME280;64750;52.134;5.424;2023-03-25T13:25:03;100374.97;;;11.47;67.54
72086;BME280;64750;52.134;5.424;2023-03-25T13:27:32;100387.25;;;11.47;67.69
72086;BME280;64750;52.134;5.424;2023-03-25T13:30:00;100390.63;;;11.49;68.42
72086;BME280;64750;52.134;5.424;2023-03-25T13:32:35;100393.16;;;11.51;67.45
72086;BME280;64750;52.134;5.424;2023-03-25T13:35:14;100410.13;;;11.46;67.41
72086;BME280;64750;52.134;5.424;2023-03-25T13:37:45;100419.06;;;11.44;67.61
72086;BME280;64750;52.134;5.424;2023-03-25T13:40:25;100409.19;;;11.47;68.30
72086;BME280;64750;52.134;5.424;2023-03-25T13:43:06;100397.78;;;11.47;68.80
72086;BME280;64750;52.134;5.424;2023-03-25T13:48:45;100438.97;;;11.35;67.33
72086;BME280;64750;52.134;5.424;2023-03-25T13:51:14;100406.06;;;11.29;67.49
72086;BME280;64750;52.134;5.424;2023-03-25T13:54:05;100418.69;;;11.24;67.61
72086;BME280;64750;52.134;5.424;2023-03-25T13:56:49;100417.53;;;11.28;68.20
72086;BME280;64750;52.134;5.424;2023-03-25T14:07:59;100465.28;;;11.22;70.86
72086;BME280;64750;52.134;5.424;2023-03-25T14:13:21;100490.00;;;10.26;76.07
72086;BME280;64750;52.134;5.424;2023-03-25T14:15:59;100492.25;;;10.05;77.07
72086;BME280;64750;52.134;5.424;2023-03-25T14:18:27;100505.94;;;9.96;78.01
72086;BME280;64750;52.134;5.424;2023-03-25T14:21:10;100495.28;;;9.84;78.39
72086;BME280;64750;52.134;5.424;2023-03-25T14:23:38;100496.38;;;9.80;79.97
72086;BME280;64750;52.134;5.424;2023-03-25T14:26:08;100499.13;;;9.79;79.80
72086;BME280;64750;52.134;5.424;2023-03-25T14:28:38;100483.19;;;9.82;81.27
72086;BME280;64750;52.134;5.424;2023-03-25T14:37:08;100481.81;;;10.04;81.37
72086;BME280;64750;52.134;5.424;2023-03-25T14:41:58;100481.78;;;10.18;80.52
72086;BME280;64750;52.134;5.424;2023-03-25T14:44:30;100490.31;;;10.22;80.66
72086;BME280;64750;52.134;5.424;2023-03-25T14:47:24;100485.94;;;10.35;80.17
72086;BME280;64750;52.134;5.424;2023-03-25T14:55:00;100478.91;;;10.63;77.97
72086;BME280;64750;52.134;5.424;2023-03-25T14:57:38;100470.31;;;10.74;77.52
72086;BME280;64750;52.134;5.424;2023-03-25T15:00:06;100487.56;;;10.78;75.44
72086;BME280;64750;52.134;5.424;2023-03-25T15:02:42;100475.56;;;10.74;74.61
72086;BME280;64750;52.134;5.424;2023-03-25T15:05:22;100481.03;;;10.71;73.61
72086;BME280;64750;52.134;5.424;2023-03-25T15:07:58;100486.59;;;10.66;73.40
72086;BME280;64750;52.134;5.424;2023-03-25T15:10:37;100488.50;;;10.64;73.07